createdAt,value
2022-09-24T00:01:44.481Z,1.00
2022-09-24T00:04:13.379Z,2.00
2022-09-24T00:06:44.647Z,1.00
2022-09-24T00:09:19.357Z,1.20
2022-09-24T00:11:47.313Z,1.00
2022-09-24T00:14:15.058Z,1.20
2022-09-24T00:16:44.101Z,1.60
2022-09-24T00:19:14.112Z,1.00
2022-09-24T00:21:42.998Z,1.00
2022-09-24T00:24:37.162Z,1.40
2022-09-24T00:27:06.411Z,0.00
2022-09-24T00:29:35.937Z,1.80
2022-09-24T00:32:05.646Z,1.00
2022-09-24T00:34:33.657Z,0.60
2022-09-24T00:37:01.126Z,0.80
2022-09-24T00:39:28.984Z,2.00
2022-09-24T00:41:56.761Z,1.00
2022-09-24T00:44:54.607Z,1.00
2022-09-24T00:47:31.966Z,1.60
2022-09-24T00:50:25.815Z,1.40
2022-09-24T00:52:58.809Z,1.00
2022-09-24T00:55:27.817Z,1.40
2022-09-24T00:58:01.219Z,1.80
2022-09-24T01:00:28.742Z,0.00
2022-09-24T01:03:11.534Z,0.00
2022-09-24T01:05:39.563Z,1.20
2022-09-24T01:08:18.084Z,1.60
2022-09-24T01:10:48.488Z,1.20
2022-09-24T01:13:45.001Z,1.40
2022-09-24T01:16:15.345Z,1.00
2022-09-24T01:19:00.018Z,0.20
2022-09-24T01:21:51.642Z,0.20
2022-09-24T01:24:40.664Z,1.00
2022-09-24T01:27:20.117Z,1.00
2022-09-24T01:30:08.862Z,1.20
2022-09-24T01:32:56.932Z,1.00
2022-09-24T01:35:35.491Z,1.00
2022-09-24T01:38:08.071Z,0.00
2022-09-24T01:40:38.119Z,1.00
2022-09-24T01:43:10.579Z,1.00
2022-09-24T01:45:39.889Z,0.60
2022-09-24T01:48:08.059Z,2.00
2022-09-24T01:51:00.250Z,1.00
2022-09-24T01:53:32.212Z,1.00
2022-09-24T01:56:25.504Z,0.00
2022-09-24T01:59:17.280Z,1.00
2022-09-24T02:02:07.861Z,1.00
2022-09-24T02:04:42.697Z,0.20
2022-09-24T02:07:24.844Z,1.20
2022-09-24T02:09:52.518Z,1.00
2022-09-24T02:12:34.220Z,1.00
2022-09-24T02:15:11.655Z,0.60
2022-09-24T02:17:43.424Z,1.00
2022-09-24T02:20:15.436Z,1.00
2022-09-24T02:22:44.284Z,1.60
2022-09-24T02:25:16.300Z,0.20
2022-09-24T02:27:43.961Z,0.20
2022-09-24T02:30:12.036Z,1.00
2022-09-24T02:32:42.396Z,0.00
2022-09-24T02:35:12.110Z,1.00
2022-09-24T02:37:42.658Z,1.00
2022-09-24T02:40:13.146Z,1.00
2022-09-24T02:42:42.655Z,1.00
2022-09-24T02:45:11.594Z,1.00
2022-09-24T02:47:39.524Z,0.00
2022-09-24T02:50:07.594Z,0.00
2022-09-24T02:52:35.180Z,1.00
2022-09-24T02:55:02.518Z,0.00
2022-09-24T02:57:30.154Z,2.00
2022-09-24T02:59:57.601Z,2.00
2022-09-24T03:02:25.131Z,0.80
2022-09-24T03:04:52.729Z,0.80
2022-09-24T03:07:22.073Z,1.00
2022-09-24T03:09:49.442Z,0.60
2022-09-24T03:12:16.954Z,0.40
2022-09-24T03:14:44.450Z,1.00
2022-09-24T03:17:11.964Z,1.00
2022-09-24T03:19:39.709Z,1.00
2022-09-24T03:22:07.305Z,1.00
2022-09-24T03:24:34.881Z,1.00
2022-09-24T03:27:02.378Z,1.00
2022-09-24T03:29:48.221Z,1.00
2022-09-24T03:32:15.771Z,1.60
2022-09-24T03:34:43.354Z,0.20
2022-09-24T03:37:10.853Z,1.00
2022-09-24T03:39:38.399Z,1.20
2022-09-24T03:42:05.943Z,0.00
2022-09-24T03:44:33.513Z,0.60
2022-09-24T03:47:01.621Z,1.00
2022-09-24T03:49:30.202Z,1.00
2022-09-24T03:51:57.898Z,1.00
2022-09-24T03:54:25.392Z,1.80
2022-09-24T03:56:52.863Z,1.00
2022-09-24T03:59:20.207Z,1.40
2022-09-24T04:01:48.064Z,1.60
2022-09-24T04:04:16.448Z,1.00
2022-09-24T04:06:45.085Z,0.00
2022-09-24T04:09:12.378Z,0.40
2022-09-24T04:11:40.001Z,0.80
2022-09-24T04:14:07.567Z,1.00
2022-09-24T04:16:35.225Z,2.00
2022-09-24T04:19:02.672Z,1.00
2022-09-24T04:21:30.613Z,1.00
2022-09-24T04:23:57.976Z,0.80
2022-09-24T04:26:26.004Z,1.00
2022-09-24T04:28:53.377Z,1.00
2022-09-24T04:31:20.958Z,1.00
2022-09-24T04:33:48.474Z,1.00
2022-09-24T04:36:15.910Z,1.00
2022-09-24T04:38:43.358Z,1.40
2022-09-24T04:41:10.741Z,1.40
2022-09-24T04:43:38.152Z,1.20
2022-09-24T04:46:06.702Z,1.00
2022-09-24T04:48:34.960Z,1.40
2022-09-24T04:51:03.582Z,1.00
2022-09-24T04:53:31.254Z,1.00
2022-09-24T04:56:00.317Z,2.00
2022-09-24T04:58:28.005Z,1.20
2022-09-24T05:00:55.565Z,1.00
2022-09-24T05:03:23.169Z,0.60
2022-09-24T05:05:50.702Z,1.20
2022-09-24T05:08:18.214Z,1.00
2022-09-24T05:10:45.548Z,2.80
2022-09-24T05:13:13.036Z,1.40
2022-09-24T05:15:43.159Z,2.00
2022-09-24T05:18:11.181Z,2.00
2022-09-24T05:20:38.611Z,1.80
2022-09-24T05:23:06.300Z,3.00
2022-09-24T05:25:33.693Z,2.00
2022-09-24T05:28:01.455Z,2.00
2022-09-24T05:30:29.042Z,18.00
2022-09-24T05:32:56.692Z,9.00
2022-09-24T05:35:24.635Z,15.75
2022-09-24T05:37:53.933Z,26.50
2022-09-24T05:40:41.002Z,11.00
2022-09-24T05:43:08.858Z,5.25
2022-09-24T05:45:36.632Z,6.25
2022-09-24T05:48:04.622Z,4.00
2022-09-24T05:50:35.119Z,3.25
2022-09-24T05:53:04.308Z,2.75
2022-09-24T05:55:32.788Z,3.00
2022-09-24T05:58:08.657Z,2.00
2022-09-24T06:00:36.855Z,2.60
2022-09-24T06:03:26.455Z,1.20
2022-09-24T06:05:54.268Z,1.60
2022-09-24T06:08:21.899Z,1.20
2022-09-24T06:10:49.892Z,1.00
2022-09-24T06:13:19.530Z,2.00
2022-09-24T06:15:47.338Z,2.60
2022-09-24T06:18:14.979Z,2.00
2022-09-24T06:20:42.231Z,2.00
2022-09-24T06:23:09.657Z,2.40
2022-09-24T06:25:37.026Z,2.80
2022-09-24T06:28:05.571Z,1.00
2022-09-24T06:30:41.661Z,1.20
2022-09-24T06:33:13.688Z,1.60
2022-09-24T06:35:43.246Z,2.20
2022-09-24T06:38:16.351Z,1.00
2022-09-24T06:40:51.798Z,0.00
2022-09-24T06:43:19.654Z,1.20
2022-09-24T06:45:47.116Z,1.60
2022-09-24T06:48:15.454Z,1.00
2022-09-24T06:50:45.410Z,2.40
2022-09-24T06:53:13.126Z,1.20
2022-09-24T06:55:40.906Z,1.00
2022-09-24T06:58:12.736Z,1.40
2022-09-24T07:00:41.353Z,2.20
2022-09-24T07:03:13.488Z,2.00
2022-09-24T07:05:43.510Z,2.00
2022-09-24T07:08:11.761Z,1.00
2022-09-24T07:10:43.497Z,1.40
2022-09-24T07:13:13.217Z,1.00
2022-09-24T07:15:41.182Z,1.00
2022-09-24T07:18:08.983Z,3.20
2022-09-24T07:20:39.655Z,2.00
2022-09-24T07:23:09.045Z,2.00
2022-09-24T07:25:38.182Z,2.00
2022-09-24T07:28:08.838Z,2.00
2022-09-24T07:30:37.210Z,1.00
2022-09-24T07:33:26.053Z,1.00
2022-09-24T07:35:53.503Z,1.00
2022-09-24T07:38:21.411Z,0.00
2022-09-24T07:40:51.138Z,1.00
2022-09-24T07:43:23.404Z,1.00
2022-09-24T07:45:50.930Z,1.00
2022-09-24T07:48:18.505Z,0.00
2022-09-24T07:50:46.181Z,1.00
2022-09-24T07:53:15.377Z,0.60
2022-09-24T07:55:43.062Z,0.00
2022-09-24T07:58:15.170Z,1.00
2022-09-24T08:00:43.117Z,1.00
2022-09-24T08:03:11.155Z,0.60
2022-09-24T08:05:46.396Z,1.20
2022-09-24T08:08:14.457Z,2.40
2022-09-24T08:10:42.780Z,1.00
2022-09-24T08:13:10.228Z,2.00
2022-09-24T08:15:37.750Z,2.00
2022-09-24T08:18:05.905Z,2.60
2022-09-24T08:20:34.362Z,2.00
2022-09-24T08:23:07.015Z,1.00
2022-09-24T08:25:34.605Z,1.00
2022-09-24T08:28:04.362Z,0.00
2022-09-24T08:30:32.861Z,0.00
2022-09-24T08:33:00.531Z,0.80
2022-09-24T08:35:28.002Z,2.40
2022-09-24T08:37:55.687Z,1.60
2022-09-24T08:40:27.039Z,0.60
2022-09-24T08:43:07.494Z,0.00
2022-09-24T08:46:03.107Z,0.00
2022-09-24T08:48:37.532Z,0.20
2022-09-24T08:51:12.931Z,1.00
2022-09-24T08:53:53.056Z,1.40
2022-09-24T08:56:26.691Z,0.60
2022-09-24T08:59:18.517Z,0.40
2022-09-24T09:02:13.809Z,1.00
2022-09-24T09:05:09.921Z,0.40
2022-09-24T09:07:55.059Z,0.00
2022-09-24T09:10:34.609Z,1.80
2022-09-24T09:13:26.575Z,1.00
2022-09-24T09:16:07.019Z,1.00
2022-09-24T09:18:41.777Z,0.00
2022-09-24T09:21:25.852Z,0.00
2022-09-24T09:23:57.042Z,0.60
2022-09-24T09:26:26.297Z,0.00
2022-09-24T09:29:00.233Z,0.00
2022-09-24T09:31:47.616Z,0.60
2022-09-24T09:34:35.047Z,0.00
2022-09-24T09:37:11.576Z,0.00
2022-09-24T09:39:54.057Z,0.00
2022-09-24T09:42:28.040Z,0.60
2022-09-24T09:44:56.136Z,0.00
2022-09-24T09:47:51.216Z,0.00
2022-09-24T09:50:40.462Z,0.00
2022-09-24T09:53:23.682Z,0.60
2022-09-24T09:55:56.891Z,0.00
2022-09-24T09:58:35.354Z,0.00
2022-09-24T10:01:20.121Z,0.00
2022-09-24T10:03:47.639Z,1.00
2022-09-24T10:06:25.209Z,1.00
2022-09-24T10:08:52.920Z,2.00
2022-09-24T10:11:22.649Z,0.40
2022-09-24T10:14:06.543Z,0.00
2022-09-24T10:16:48.273Z,0.00
2022-09-24T10:19:27.212Z,0.60
2022-09-24T10:21:57.690Z,0.20
2022-09-24T10:24:28.105Z,0.20
2022-09-24T10:26:55.674Z,0.60
2022-09-24T10:29:51.672Z,0.60
2022-09-24T10:32:27.289Z,0.60
2022-09-24T10:34:59.855Z,1.00
2022-09-24T10:37:28.898Z,0.00
2022-09-24T10:40:11.785Z,2.00
2022-09-24T10:42:39.701Z,1.00
2022-09-24T10:45:14.368Z,1.20
2022-09-24T10:48:21.356Z,0.00
2022-09-24T10:50:56.901Z,1.00
2022-09-24T10:53:40.286Z,0.80
2022-09-24T10:56:26.418Z,1.00
2022-09-24T10:59:15.442Z,0.00
2022-09-24T11:02:04.118Z,1.00
2022-09-24T11:04:52.935Z,0.00
2022-09-24T11:07:26.405Z,1.00
2022-09-24T11:10:05.721Z,0.00
2022-09-24T11:12:46.343Z,0.00
2022-09-24T11:15:34.883Z,0.40
2022-09-24T11:18:09.343Z,1.20
2022-09-24T11:20:39.736Z,2.00
2022-09-24T11:23:07.921Z,0.60
2022-09-24T11:25:50.716Z,0.80
2022-09-24T11:28:49.182Z,1.00
2022-09-24T11:31:41.337Z,1.00
2022-09-24T11:34:34.373Z,1.00
2022-09-24T11:37:43.663Z,1.00
2022-09-24T11:40:36.226Z,1.00
2022-09-24T11:43:34.175Z,1.00
2022-09-24T11:46:28.327Z,0.20
2022-09-24T11:49:24.077Z,1.00
2022-09-24T11:52:12.075Z,0.00
2022-09-24T11:55:01.217Z,1.00
2022-09-24T11:57:33.203Z,0.40
2022-09-24T12:00:10.073Z,1.00
2022-09-24T12:02:55.907Z,0.20
2022-09-24T12:05:30.002Z,0.20
2022-09-24T12:08:27.911Z,0.00
2022-09-24T12:11:21.223Z,1.00
2022-09-24T12:14:21.934Z,0.00
2022-09-24T12:16:54.641Z,0.00
2022-09-24T12:19:39.542Z,1.00
2022-09-24T12:22:09.062Z,1.00
2022-09-24T12:24:43.268Z,0.20
2022-09-24T12:27:35.099Z,0.60
2022-09-24T12:30:24.016Z,1.00
2022-09-24T12:33:06.792Z,0.00
2022-09-24T12:36:09.312Z,1.00
2022-09-24T12:38:45.480Z,0.60
2022-09-24T12:41:36.502Z,0.20
2022-09-24T12:44:21.899Z,0.40
2022-09-24T12:46:56.025Z,0.75
2022-09-24T12:49:26.860Z,1.50
2022-09-24T12:52:16.318Z,2.00
2022-09-24T12:54:44.891Z,1.00
2022-09-24T12:57:26.485Z,1.00
2022-09-24T12:59:59.541Z,2.00
2022-09-24T13:02:43.926Z,1.00
2022-09-24T13:05:23.421Z,1.00
2022-09-24T13:08:25.002Z,1.00
2022-09-24T13:11:01.146Z,1.00
2022-09-24T13:13:33.043Z,1.00
2022-09-24T13:16:21.025Z,0.00
2022-09-24T13:18:54.870Z,1.00
2022-09-24T13:21:26.312Z,0.50
2022-09-24T13:23:55.144Z,0.00
2022-09-24T13:26:25.470Z,0.00
2022-09-24T13:28:58.736Z,2.00
2022-09-24T13:31:28.428Z,1.00
2022-09-24T13:34:11.934Z,0.25
2022-09-24T13:37:03.745Z,0.50
2022-09-24T13:40:00.063Z,1.50
2022-09-24T13:43:06.917Z,1.25
2022-09-24T13:45:36.994Z,0.25
2022-09-24T13:48:13.120Z,0.00
2022-09-24T13:50:48.963Z,0.50
2022-09-24T13:53:42.342Z,0.00
2022-09-24T13:56:16.029Z,1.00
2022-09-24T13:58:44.204Z,0.75
2022-09-24T14:01:31.061Z,1.00
2022-09-24T14:04:22.783Z,0.00
2022-09-24T14:06:52.284Z,1.00
2022-09-24T14:09:37.181Z,0.00
2022-09-24T14:12:22.668Z,0.25
2022-09-24T14:14:58.358Z,1.00
2022-09-24T14:17:26.823Z,0.50
2022-09-24T14:19:57.161Z,3.75
2022-09-24T14:22:29.819Z,3.25
2022-09-24T14:25:08.412Z,0.50
2022-09-24T14:27:43.892Z,0.50
2022-09-24T14:30:26.464Z,1.00
2022-09-24T14:32:58.410Z,5.00
2022-09-24T14:35:31.674Z,1.50
2022-09-24T14:38:15.598Z,1.00
2022-09-24T14:40:57.947Z,1.00
2022-09-24T14:43:32.301Z,3.00
2022-09-24T14:46:09.731Z,0.00
2022-09-24T14:48:37.389Z,3.00
2022-09-24T14:51:05.351Z,3.00
2022-09-24T14:53:36.437Z,2.25
2022-09-24T14:56:29.457Z,1.00
2022-09-24T14:58:57.036Z,2.00
2022-09-24T15:01:32.527Z,3.00
2022-09-24T15:04:02.551Z,4.50
2022-09-24T15:06:32.454Z,5.00
2022-09-24T15:09:07.672Z,3.50
2022-09-24T15:11:40.028Z,5.00
2022-09-24T15:14:12.734Z,4.00
2022-09-24T15:16:40.333Z,3.25
2022-09-24T15:19:08.018Z,2.75
2022-09-24T15:21:35.572Z,3.25
2022-09-24T15:24:03.082Z,3.25
2022-09-24T15:26:33.285Z,2.00
2022-09-24T15:29:02.351Z,2.75
2022-09-24T15:31:30.112Z,4.00
2022-09-24T15:33:57.762Z,2.50
2022-09-24T15:36:26.347Z,2.50
2022-09-24T15:39:01.322Z,2.25
2022-09-24T15:41:29.209Z,2.00
2022-09-24T15:44:00.238Z,2.25
2022-09-24T15:46:29.013Z,3.50
2022-09-24T15:48:56.361Z,4.00
2022-09-24T15:51:24.439Z,4.75
2022-09-24T15:53:52.102Z,2.75
2022-09-24T15:56:19.871Z,4.75
2022-09-24T15:58:48.117Z,5.00
2022-09-24T16:01:20.681Z,5.20
2022-09-24T16:03:48.184Z,3.00
2022-09-24T16:06:15.722Z,4.00
2022-09-24T16:08:43.371Z,3.40
2022-09-24T16:11:10.727Z,2.25
2022-09-24T16:13:38.380Z,3.50
2022-09-24T16:16:09.110Z,2.00
2022-09-24T16:18:36.502Z,3.00
2022-09-24T16:21:08.347Z,0.50
2022-09-24T16:23:35.816Z,2.40
2022-09-24T16:26:04.012Z,2.00
2022-09-24T16:28:31.727Z,0.60
2022-09-24T16:30:59.582Z,2.20
2022-09-24T16:33:27.132Z,2.40
2022-09-24T16:35:54.424Z,2.00
2022-09-24T16:38:23.292Z,2.80
2022-09-24T16:40:59.374Z,2.40
2022-09-24T16:43:27.253Z,0.00
2022-09-24T16:45:59.927Z,1.80
2022-09-24T16:48:27.589Z,1.40
2022-09-24T16:50:55.629Z,2.80
2022-09-24T16:53:23.053Z,2.00
2022-09-24T16:55:50.801Z,2.00
2022-09-24T16:58:18.107Z,2.00
2022-09-24T17:00:46.151Z,2.20
2022-09-24T17:03:13.448Z,1.60
2022-09-24T17:05:40.863Z,2.00
2022-09-24T17:08:08.240Z,1.20
2022-09-24T17:10:35.572Z,2.00
2022-09-24T17:13:02.997Z,3.00
2022-09-24T17:15:30.401Z,2.00
2022-09-24T17:17:59.653Z,2.00
2022-09-24T17:20:26.890Z,2.60
2022-09-24T17:22:54.310Z,1.60
2022-09-24T17:25:21.594Z,2.00
2022-09-24T17:27:49.070Z,3.40
2022-09-24T17:30:16.497Z,4.20
2022-09-24T17:32:44.497Z,3.20
2022-09-24T17:35:12.064Z,2.60
2022-09-24T17:37:39.419Z,3.60
2022-09-24T17:40:07.442Z,3.00
2022-09-24T17:42:34.981Z,1.80
2022-09-24T17:45:02.312Z,2.40
2022-09-24T17:47:49.602Z,2.60
2022-09-24T17:50:17.084Z,5.00
2022-09-24T17:52:44.391Z,2.80
2022-09-24T17:55:11.799Z,2.40
2022-09-24T17:57:39.264Z,2.40
2022-09-24T18:00:07.454Z,3.00
2022-09-24T18:02:39.011Z,5.00
2022-09-24T18:05:07.564Z,3.00
2022-09-24T18:07:34.937Z,6.00
2022-09-24T18:10:02.523Z,6.60
2022-09-24T18:12:29.914Z,5.00
2022-09-24T18:14:57.414Z,2.20
2022-09-24T18:17:25.179Z,4.60
2022-09-24T18:19:52.487Z,4.80
2022-09-24T18:22:19.838Z,7.60
2022-09-24T18:24:47.877Z,7.40
2022-09-24T18:27:16.248Z,6.00
2022-09-24T18:29:44.833Z,7.20
2022-09-24T18:32:13.874Z,7.80
2022-09-24T18:34:41.325Z,7.00
2022-09-24T18:37:08.597Z,6.60
2022-09-24T18:39:35.927Z,6.60
2022-09-24T18:42:03.452Z,5.00
2022-09-24T18:44:30.828Z,5.80
2022-09-24T18:46:58.101Z,7.20
2022-09-24T18:49:25.682Z,9.40
2022-09-24T18:51:53.059Z,7.80
2022-09-24T18:54:20.522Z,6.00
2022-09-24T18:56:47.867Z,7.00
2022-09-24T18:59:18.787Z,3.80
2022-09-24T19:01:48.536Z,2.40
2022-09-24T19:04:18.032Z,0.00
2022-09-24T19:06:48.521Z,2.80
2022-09-24T19:09:18.603Z,1.00
2022-09-24T19:11:46.810Z,3.00
2022-09-24T19:14:18.697Z,1.00
2022-09-24T19:16:47.343Z,4.20
2022-09-24T19:19:16.192Z,5.80
2022-09-24T19:21:43.587Z,2.00
2022-09-24T19:24:11.889Z,3.20
2022-09-24T19:26:39.240Z,2.20
2022-09-24T19:29:06.702Z,4.60
2022-09-24T19:31:37.874Z,2.60
2022-09-24T19:34:07.784Z,0.20
2022-09-24T19:36:45.193Z,2.40
2022-09-24T19:39:15.890Z,3.20
2022-09-24T19:41:44.147Z,2.80
2022-09-24T19:44:12.407Z,2.00
2022-09-24T19:46:41.402Z,5.80
2022-09-24T19:49:09.203Z,0.00
2022-09-24T19:51:37.018Z,3.20
2022-09-24T19:54:07.730Z,2.80
2022-09-24T19:56:36.213Z,2.00
2022-09-24T19:59:05.279Z,0.80
2022-09-24T20:01:34.463Z,4.00
2022-09-24T20:04:05.781Z,2.00
2022-09-24T20:06:35.484Z,1.40
2022-09-24T20:09:03.881Z,2.40
2022-09-24T20:11:33.079Z,2.00
2022-09-24T20:14:01.781Z,3.80
2022-09-24T20:16:33.181Z,3.80
2022-09-24T20:19:02.517Z,2.00
2022-09-24T20:21:35.192Z,4.20
2022-09-24T20:24:04.123Z,4.00
2022-09-24T20:26:50.912Z,3.00
2022-09-24T20:29:23.151Z,4.20
2022-09-24T20:31:55.567Z,3.20
2022-09-24T20:34:26.778Z,2.80
2022-09-24T20:36:54.803Z,2.00
2022-09-24T20:39:22.387Z,2.00
2022-09-24T20:41:50.181Z,3.00
2022-09-24T20:44:18.281Z,4.80
2022-09-24T20:46:45.927Z,4.80
2022-09-24T20:49:24.643Z,4.00
2022-09-24T20:51:57.034Z,5.00
2022-09-24T20:54:26.582Z,4.80
2022-09-24T20:56:54.453Z,4.60
2022-09-24T20:59:22.025Z,5.20
2022-09-24T21:01:49.895Z,6.00
2022-09-24T21:04:20.271Z,4.00
2022-09-24T21:06:48.942Z,4.60
2022-09-24T21:09:17.499Z,4.60
2022-09-24T21:11:45.234Z,3.40
2022-09-24T21:14:12.963Z,1.00
2022-09-24T21:16:40.882Z,2.00
2022-09-24T21:19:08.615Z,2.00
2022-09-24T21:21:38.579Z,4.00
2022-09-24T21:24:08.199Z,2.00
2022-09-24T21:26:37.676Z,2.00
2022-09-24T21:29:08.382Z,2.00
2022-09-24T21:31:37.822Z,2.00
2022-09-24T21:34:07.211Z,1.20
2022-09-24T21:36:43.972Z,1.20
2022-09-24T21:39:26.909Z,1.40
2022-09-24T21:41:57.631Z,1.80
2022-09-24T21:44:26.003Z,1.60
2022-09-24T21:46:53.698Z,5.00
2022-09-24T21:49:21.479Z,3.20
2022-09-24T21:51:49.249Z,1.80
2022-09-24T21:54:18.797Z,2.00
2022-09-24T21:56:47.272Z,2.00
2022-09-24T21:59:34.778Z,4.20
2022-09-24T22:02:03.792Z,1.20
2022-09-24T22:04:33.540Z,4.00
2022-09-24T22:07:01.411Z,4.40
2022-09-24T22:09:29.853Z,4.00
2022-09-24T22:12:00.796Z,0.00
2022-09-24T22:14:28.419Z,2.40
2022-09-24T22:16:56.706Z,2.00
2022-09-24T22:19:24.386Z,2.00
2022-09-24T22:21:52.622Z,4.40
2022-09-24T22:24:20.123Z,1.60
2022-09-24T22:26:47.717Z,0.00
2022-09-24T22:29:15.176Z,1.80
2022-09-24T22:31:42.610Z,0.80
2022-09-24T22:34:29.463Z,1.60
2022-09-24T22:36:57.721Z,0.00
2022-09-24T22:39:25.343Z,2.00
2022-09-24T22:41:52.949Z,2.00
2022-09-24T22:44:20.560Z,2.00
2022-09-24T22:46:47.891Z,1.80
2022-09-24T22:49:15.416Z,2.00
2022-09-24T22:51:42.970Z,1.80
2022-09-24T22:54:10.781Z,2.00
2022-09-24T22:56:38.752Z,4.20
2022-09-24T22:59:06.814Z,1.00
2022-09-24T23:01:39.523Z,1.20
2022-09-24T23:04:07.401Z,1.00
2022-09-24T23:06:35.436Z,1.00
2022-09-24T23:09:03.117Z,2.80
2022-09-24T23:11:34.064Z,1.00
2022-09-24T23:14:06.863Z,2.00
2022-09-24T23:16:38.418Z,2.00
2022-09-24T23:19:11.516Z,1.00
2022-09-24T23:21:39.098Z,1.80
2022-09-24T23:24:18.484Z,4.00
2022-09-24T23:26:46.789Z,1.00
2022-09-24T23:29:15.501Z,0.00
2022-09-24T23:31:43.181Z,1.20
2022-09-24T23:34:13.517Z,2.00
2022-09-24T23:36:41.913Z,1.60
2022-09-24T23:39:09.403Z,2.00
2022-09-24T23:41:37.383Z,1.80
2022-09-24T23:44:05.031Z,1.60
2022-09-24T23:46:34.017Z,1.60
2022-09-24T23:49:01.696Z,1.20
2022-09-24T23:51:29.294Z,2.00
2022-09-24T23:53:56.854Z,2.00
2022-09-24T23:56:24.535Z,2.40
2022-09-24T23:58:51.784Z,2.00
